Time;durP1;ratioP1;P1;durP2;ratioP2;P2;SDS_P1;SDS_P2;PMS_P1;PMS_P2;Temp;Humidity;BMP_temperature;BMP_pressure;BME280_temperature;BME280_humidity;BME280_pressure;Samples;Min_cycle;Max_cycle;Signal;HPM_P1;HPM_P2
2021/07/23 00:01:40;;;;;;;4.90;4.30;;;17.00;99.90;;;;;;5046196;28;20739;-65
2021/07/23 00:04:11;;;;;;;5.60;4.17;;;17.00;99.90;;;;;;5046128;28;20231;-65
2021/07/23 00:06:39;;;;;;;6.00;3.80;;;17.00;99.90;;;;;;5061890;28;20269;-65
2021/07/23 00:09:07;;;;;;;5.60;3.97;;;17.00;99.90;;;;;;5051620;28;21227;-65
2021/07/23 00:11:35;;;;;;;4.40;3.73;;;17.00;99.90;;;;;;5045526;28;20284;-65
2021/07/23 00:14:04;;;;;;;5.67;3.87;;;17.10;99.90;;;;;;5046801;28;20288;-64
2021/07/23 00:16:33;;;;;;;5.70;3.90;;;17.20;99.90;;;;;;5045988;28;20608;-65
2021/07/23 00:19:01;;;;;;;5.67;4.20;;;17.10;99.90;;;;;;5046088;28;20263;-65
2021/07/23 00:21:29;;;;;;;6.30;4.30;;;17.10;99.90;;;;;;5041098;28;20244;-64
2021/07/23 00:23:57;;;;;;;6.43;4.00;;;17.20;99.90;;;;;;5046425;28;20693;-65
2021/07/23 00:26:26;;;;;;;6.67;3.67;;;17.10;99.90;;;;;;5045327;28;20228;-64
2021/07/23 00:28:54;;;;;;;5.20;4.20;;;17.10;99.90;;;;;;5043699;28;20700;-65
2021/07/23 00:31:22;;;;;;;4.30;3.90;;;17.10;99.90;;;;;;5058681;28;20250;-64
2021/07/23 00:33:51;;;;;;;6.33;4.30;;;17.10;99.90;;;;;;5065657;28;20235;-65
2021/07/23 00:36:20;;;;;;;6.03;4.07;;;17.10;99.90;;;;;;5045155;28;20278;-65
2021/07/23 00:38:48;;;;;;;6.30;4.63;;;17.10;99.90;;;;;;5044590;28;20755;-65
2021/07/23 00:41:16;;;;;;;7.17;4.40;;;17.10;99.90;;;;;;5046637;28;20239;-65
2021/07/23 00:43:46;;;;;;;4.83;3.90;;;17.10;99.90;;;;;;5045704;28;20236;-65
2021/07/23 00:46:14;;;;;;;6.90;4.77;;;17.00;99.90;;;;;;5045942;28;20734;-65
2021/07/23 00:48:43;;;;;;;6.70;4.20;;;17.10;99.90;;;;;;5046667;28;20248;-65
2021/07/23 00:51:14;;;;;;;6.00;4.37;;;17.10;99.90;;;;;;5048782;28;20318;-65
2021/07/23 00:53:42;;;;;;;4.87;4.30;;;17.00;99.90;;;;;;5047221;28;20236;-64
2021/07/23 00:56:11;;;;;;;5.03;4.30;;;17.10;99.90;;;;;;5047294;28;20588;-65
2021/07/23 00:58:39;;;;;;;4.93;4.27;;;17.10;99.90;;;;;;5045286;28;20232;-64
2021/07/23 01:01:09;;;;;;;5.87;4.30;;;17.10;99.90;;;;;;5057496;28;20337;-64
2021/07/23 01:03:38;;;;;;;5.87;4.80;;;17.00;99.90;;;;;;5067250;28;20263;-64
2021/07/23 01:06:10;;;;;;;5.00;4.23;;;16.90;99.90;;;;;;5049337;28;20236;-65
2021/07/23 01:08:42;;;;;;;9.97;5.27;;;16.80;99.90;;;;;;5049564;28;20594;-65
2021/07/23 01:11:12;;;;;;;6.83;4.63;;;16.80;99.90;;;;;;5060566;28;20232;-65
2021/07/23 01:13:41;;;;;;;5.77;4.60;;;16.80;99.90;;;;;;5053268;28;20240;-64
2021/07/23 01:16:11;;;;;;;6.90;4.80;;;16.80;99.90;;;;;;5049805;28;20237;-64
2021/07/23 01:18:42;;;;;;;6.40;4.63;;;16.70;99.90;;;;;;5049116;28;20608;-65
2021/07/23 01:21:11;;;;;;;8.27;4.77;;;16.80;99.90;;;;;;5061561;28;20230;-65
2021/07/23 01:23:43;;;;;;;6.63;5.93;;;16.70;99.90;;;;;;5048778;28;20778;-64
2021/07/23 01:26:31;;;;;;;7.13;5.80;;;16.60;99.90;;;;;;5048500;28;20259;-65
2021/07/23 01:29:00;;;;;;;6.67;5.70;;;16.60;99.90;;;;;;5042205;28;20287;-64
2021/07/23 01:31:29;;;;;;;10.23;5.97;;;16.50;99.90;;;;;;5057952;28;20231;-65
2021/07/23 01:33:58;;;;;;;6.47;5.70;;;16.40;99.90;;;;;;5031148;28;20704;-65
2021/07/23 01:36:27;;;;;;;6.13;5.23;;;16.40;99.90;;;;;;5062352;28;20238;-64
2021/07/23 01:38:58;;;;;;;7.37;5.73;;;16.40;99.90;;;;;;5070050;28;20231;-65
2021/07/23 01:41:28;;;;;;;6.87;6.17;;;16.40;99.90;;;;;;5047857;28;20596;-63
2021/07/23 01:43:58;;;;;;;9.77;6.03;;;16.40;99.90;;;;;;5050522;28;20239;-64
2021/07/23 01:46:28;;;;;;;6.23;5.60;;;16.50;99.90;;;;;;5064301;28;20582;-64
2021/07/23 01:49:02;;;;;;;6.47;5.67;;;16.50;99.90;;;;;;5049819;28;20230;-65
2021/07/23 01:51:41;;;;;;;6.20;5.57;;;16.50;99.90;;;;;;5062623;28;20239;-64
2021/07/23 01:54:38;;;;;;;8.37;6.03;;;16.50;99.90;;;;;;5063706;28;20597;-65
2021/07/23 01:57:07;;;;;;;5.73;5.23;;;16.50;99.90;;;;;;5048687;28;20932;-64
2021/07/23 01:59:37;;;;;;;5.87;5.20;;;16.50;99.90;;;;;;5047684;28;20865;-64
2021/07/23 02:02:05;;;;;;;6.10;5.50;;;16.40;99.90;;;;;;5067932;28;20231;-64
2021/07/23 02:04:41;;;;;;;7.40;6.07;;;16.50;99.90;;;;;;5061565;28;20707;-63
2021/07/23 02:07:10;;;;;;;6.67;5.60;;;16.50;99.90;;;;;;5067258;28;20257;-64
2021/07/23 02:09:41;;;;;;;9.10;5.83;;;16.50;99.90;;;;;;5061745;28;20687;-64
2021/07/23 02:12:11;;;;;;;6.53;5.83;;;16.60;99.90;;;;;;5064783;28;20246;-64
2021/07/23 02:15:00;;;;;;;7.30;5.87;;;16.60;99.90;;;;;;5041853;28;20550;-65
2021/07/23 02:17:30;;;;;;;7.67;6.00;;;16.60;99.90;;;;;;5047004;28;20236;-64
2021/07/23 02:19:58;;;;;;;6.07;5.47;;;16.50;99.90;;;;;;5044790;28;20699;-65
2021/07/23 02:22:31;;;;;;;6.23;5.60;;;16.50;99.90;;;;;;5046641;28;20249;-64
2021/07/23 02:25:01;;;;;;;6.47;5.37;;;16.50;99.90;;;;;;5046598;28;20234;-64
2021/07/23 02:27:33;;;;;;;7.50;5.50;;;16.50;99.90;;;;;;5047066;28;20755;-64
2021/07/23 02:30:03;;;;;;;8.77;5.90;;;16.60;99.90;;;;;;5046674;28;20239;-63
2021/07/23 02:32:39;;;;;;;6.90;5.53;;;16.60;99.90;;;;;;5046366;28;20235;-63
2021/07/23 02:35:09;;;;;;;6.70;5.97;;;16.60;99.90;;;;;;5046803;28;20246;-63
2021/07/23 02:37:50;;;;;;;6.97;5.40;;;16.50;99.90;;;;;;5047401;28;20322;-64
2021/07/23 02:40:20;;;;;;;6.13;5.33;;;16.50;99.90;;;;;;5048018;28;20718;-64
2021/07/23 02:42:58;;;;;;;6.47;5.17;;;16.50;99.90;;;;;;5048272;28;20235;-64
2021/07/23 02:45:27;;;;;;;5.93;5.10;;;16.50;99.90;;;;;;5051745;28;20280;-64
2021/07/23 02:47:57;;;;;;;5.43;4.73;;;16.50;99.90;;;;;;5066787;28;20242;-65
2021/07/23 02:50:25;;;;;;;6.10;5.50;;;16.50;99.90;;;;;;5050741;28;20593;-64
2021/07/23 02:52:55;;;;;;;6.23;5.13;;;16.50;99.90;;;;;;5045924;28;20266;-64
2021/07/23 02:55:25;;;;;;;5.67;5.17;;;16.50;99.90;;;;;;5053077;28;20650;-64
2021/07/23 02:57:55;;;;;;;5.93;5.33;;;16.60;99.90;;;;;;5066443;28;20263;-64
2021/07/23 03:00:27;;;;;;;7.87;5.87;;;16.50;99.90;;;;;;5023402;28;1097133;-64
2021/07/23 03:02:58;;;;;;;7.20;5.93;;;16.40;99.90;;;;;;5069351;28;20651;-64
2021/07/23 03:05:28;;;;;;;7.23;6.53;;;16.40;99.90;;;;;;5053593;28;20239;-64
2021/07/23 03:07:58;;;;;;;6.93;6.33;;;16.40;99.90;;;;;;5047431;28;20286;-64
2021/07/23 03:10:31;;;;;;;7.53;6.50;;;16.40;99.90;;;;;;5046237;28;20233;-64
2021/07/23 03:13:03;;;;;;;8.57;6.50;;;16.50;99.90;;;;;;5045839;28;20266;-65
2021/07/23 03:15:32;;;;;;;7.83;6.60;;;16.40;99.90;;;;;;5053742;28;20650;-64
2021/07/23 03:18:03;;;;;;;7.97;6.87;;;16.40;99.90;;;;;;5060078;28;20692;-64
2021/07/23 03:20:34;;;;;;;7.83;6.83;;;16.40;99.90;;;;;;5046474;28;20239;-65
2021/07/23 03:23:04;;;;;;;7.40;6.70;;;16.40;99.90;;;;;;5065932;28;20239;-64
2021/07/23 03:25:46;;;;;;;7.97;6.17;;;16.30;99.90;;;;;;5050136;28;21188;-64
2021/07/23 03:28:26;;;;;;;8.57;6.93;;;16.30;99.90;;;;;;5044366;28;20259;-64
2021/07/23 03:31:04;;;;;;;10.73;7.77;;;16.30;99.90;;;;;;5056029;28;20699;-64
2021/07/23 03:33:35;;;;;;;7.33;6.63;;;16.30;99.90;;;;;;5051409;28;20643;-64
2021/07/23 03:36:05;;;;;;;8.37;6.73;;;16.40;99.90;;;;;;5065687;28;20277;-64
2021/07/23 03:38:33;;;;;;;8.00;6.43;;;16.40;99.90;;;;;;5064908;28;20254;-63
2021/07/23 03:41:04;;;;;;;8.83;7.30;;;16.40;99.90;;;;;;5046462;28;20861;-64
2021/07/23 03:43:36;;;;;;;7.53;6.77;;;16.30;99.90;;;;;;5046667;28;20721;-63
2021/07/23 03:46:09;;;;;;;8.20;7.40;;;16.40;99.90;;;;;;5044922;28;20451;-65
2021/07/23 03:48:43;;;;;;;7.80;7.00;;;16.40;99.90;;;;;;5044484;28;20238;-64
2021/07/23 03:51:23;;;;;;;8.27;7.43;;;16.50;99.90;;;;;;5051372;28;20243;-64
2021/07/23 03:53:52;;;;;;;8.40;7.60;;;16.40;99.90;;;;;;5051553;28;20235;-64
2021/07/23 03:56:25;;;;;;;8.70;7.23;;;16.40;99.90;;;;;;5055463;28;20255;-64
2021/07/23 03:58:54;;;;;;;8.77;7.87;;;16.40;99.90;;;;;;5045849;28;20242;-64
2021/07/23 04:01:33;;;;;;;9.33;6.80;;;16.50;99.90;;;;;;5059362;28;20257;-64
2021/07/23 04:04:02;;;;;;;9.67;7.10;;;16.50;99.90;;;;;;5066495;28;20227;-64
2021/07/23 04:06:30;;;;;;;8.70;7.40;;;16.50;99.90;;;;;;5044495;28;20263;-64
2021/07/23 04:09:00;;;;;;;7.93;6.63;;;16.50;99.90;;;;;;5046469;28;20231;-64
2021/07/23 04:11:34;;;;;;;8.07;7.27;;;16.50;99.90;;;;;;5056113;28;20250;-64
2021/07/23 04:14:08;;;;;;;9.43;7.20;;;16.50;99.90;;;;;;5044906;28;20562;-64
2021/07/23 04:16:39;;;;;;;8.60;7.20;;;16.40;99.90;;;;;;5060350;28;20235;-65
2021/07/23 04:19:07;;;;;;;9.03;7.10;;;16.50;99.90;;;;;;5055659;28;20255;-65
2021/07/23 04:21:41;;;;;;;8.10;7.30;;;16.50;99.90;;;;;;5055633;28;20777;-64
2021/07/23 04:24:24;;;;;;;9.00;7.60;;;16.40;99.90;;;;;;5046088;28;20596;-64
2021/07/23 04:26:57;;;;;;;8.00;7.20;;;16.40;99.90;;;;;;5056743;28;20285;-65
2021/07/23 04:29:26;;;;;;;7.10;6.37;;;16.50;99.90;;;;;;5043832;28;20445;-64
2021/07/23 04:31:54;;;;;;;7.77;7.07;;;16.50;99.90;;;;;;5062160;28;20761;-64
2021/07/23 04:34:22;;;;;;;9.53;7.50;;;16.50;99.90;;;;;;5063404;28;20646;-64
2021/07/23 04:37:11;;;;;;;7.33;6.57;;;16.50;99.90;;;;;;5064753;28;20657;-64
2021/07/23 04:39:56;;;;;;;8.17;7.37;;;16.50;99.90;;;;;;5055882;28;20700;-64
2021/07/23 04:42:27;;;;;;;7.97;6.80;;;16.50;99.90;;;;;;5044334;28;20536;-64
2021/07/23 04:44:55;;;;;;;7.50;6.70;;;16.50;99.90;;;;;;5044306;28;20228;-65
2021/07/23 04:47:24;;;;;;;8.50;7.60;;;16.50;99.90;;;;;;5044330;28;20239;-65
2021/07/23 04:49:52;;;;;;;8.40;7.60;;;16.50;99.90;;;;;;5045162;28;20672;-65
2021/07/23 04:52:40;;;;;;;7.47;6.67;;;16.50;99.90;;;;;;5044946;28;20595;-65
2021/07/23 04:55:27;;;;;;;8.53;7.30;;;16.50;99.90;;;;;;5045456;28;20250;-64
2021/07/23 04:58:14;;;;;;;8.77;7.40;;;16.50;99.90;;;;;;5037277;28;20281;-64
2021/07/23 05:00:45;;;;;;;8.80;7.87;;;16.50;99.90;;;;;;5044798;28;20247;-65
2021/07/23 05:03:14;;;;;;;9.77;8.33;;;16.50;99.90;;;;;;5046021;28;20247;-65
2021/07/23 05:05:43;;;;;;;9.80;7.73;;;16.50;99.90;;;;;;5053317;28;20238;-64
2021/07/23 05:08:12;;;;;;;8.77;7.87;;;16.50;99.90;;;;;;5064094;28;20227;-65
2021/07/23 05:10:42;;;;;;;9.63;7.77;;;16.50;99.90;;;;;;5047785;28;20234;-64
2021/07/23 05:13:12;;;;;;;9.10;7.80;;;16.50;99.90;;;;;;5065436;28;20236;-65
2021/07/23 05:15:41;;;;;;;8.03;7.23;;;16.50;99.90;;;;;;5055507;28;20637;-65
2021/07/23 05:18:10;;;;;;;8.40;7.00;;;16.50;99.90;;;;;;5045409;28;20240;-65
2021/07/23 05:20:39;;;;;;;9.67;7.67;;;16.50;99.90;;;;;;5045280;28;20606;-65
2021/07/23 05:23:08;;;;;;;7.93;7.13;;;16.50;99.90;;;;;;5043849;28;20249;-65
2021/07/23 05:25:37;;;;;;;9.73;7.97;;;16.50;99.90;;;;;;5042661;28;20239;-66
2021/07/23 05:28:06;;;;;;;9.77;8.03;;;16.50;99.90;;;;;;5043908;28;20991;-66
2021/07/23 05:30:35;;;;;;;8.40;7.07;;;16.60;99.90;;;;;;5042924;28;20360;-66
2021/07/23 05:33:03;;;;;;;9.13;7.20;;;16.60;99.90;;;;;;5045885;28;20236;-67
2021/07/23 05:35:31;;;;;;;8.07;7.00;;;16.60;99.90;;;;;;5040738;28;20704;-66
2021/07/23 05:37:59;;;;;;;8.53;6.70;;;16.60;99.90;;;;;;5042571;28;20236;-66
2021/07/23 05:40:28;;;;;;;8.97;6.93;;;16.70;99.90;;;;;;5043565;28;20635;-66
2021/07/23 05:42:56;;;;;;;8.03;6.40;;;16.70;99.90;;;;;;5041485;28;20248;-66
2021/07/23 05:45:24;;;;;;;8.70;6.83;;;16.70;99.90;;;;;;5045194;28;20243;-66
2021/07/23 05:47:53;;;;;;;8.43;6.90;;;16.80;99.90;;;;;;5044979;28;20335;-66
2021/07/23 05:50:21;;;;;;;7.87;6.73;;;16.80;99.90;;;;;;5041819;28;20631;-66
2021/07/23 05:52:49;;;;;;;8.40;6.30;;;16.80;99.90;;;;;;5047883;28;20783;-66
2021/07/23 05:55:18;;;;;;;7.43;6.40;;;16.80;99.90;;;;;;5047843;28;20244;-65
2021/07/23 05:57:46;;;;;;;7.77;6.40;;;16.80;99.90;;;;;;5051678;28;20581;-66
2021/07/23 06:00:15;;;;;;;7.30;5.70;;;16.80;99.90;;;;;;5050861;28;21725;-66
2021/07/23 06:02:43;;;;;;;8.50;6.27;;;16.90;99.90;;;;;;5045844;28;20299;-66
2021/07/23 06:05:13;;;;;;;8.27;6.80;;;16.90;99.90;;;;;;5047725;28;20631;-66
2021/07/23 06:07:41;;;;;;;7.93;6.23;;;16.80;99.90;;;;;;5045501;28;21320;-66
2021/07/23 06:10:10;;;;;;;7.03;5.70;;;16.80;99.90;;;;;;5051473;28;20248;-66
2021/07/23 06:12:38;;;;;;;6.70;6.00;;;16.80;99.90;;;;;;5045780;28;20246;-66
2021/07/23 06:15:08;;;;;;;7.50;5.47;;;16.70;99.90;;;;;;5045694;28;20537;-66
2021/07/23 06:17:36;;;;;;;6.47;5.77;;;16.70;99.90;;;;;;5045985;28;20292;-66
2021/07/23 06:20:05;;;;;;;6.00;5.03;;;16.70;99.90;;;;;;5051061;28;21048;-66
2021/07/23 06:22:35;;;;;;;6.40;5.37;;;16.70;99.90;;;;;;5046850;28;20231;-66
2021/07/23 06:25:03;;;;;;;6.47;5.60;;;16.80;99.90;;;;;;5053050;28;20612;-66
2021/07/23 06:27:31;;;;;;;6.47;5.57;;;16.70;99.90;;;;;;5046060;28;20731;-66
2021/07/23 06:30:00;;;;;;;6.77;5.67;;;16.70;99.90;;;;;;5045150;28;20224;-66
2021/07/23 06:32:31;;;;;;;7.23;5.97;;;16.70;99.90;;;;;;5044887;28;20602;-66
2021/07/23 06:35:00;;;;;;;7.70;6.10;;;16.80;99.90;;;;;;5045197;28;20243;-66
2021/07/23 06:37:28;;;;;;;9.27;6.73;;;16.80;99.90;;;;;;5047555;28;20326;-66
2021/07/23 06:39:57;;;;;;;8.63;6.20;;;16.80;99.90;;;;;;5049249;28;20244;-66
2021/07/23 06:42:26;;;;;;;8.17;6.40;;;16.70;99.90;;;;;;5043879;28;20588;-66
2021/07/23 06:44:54;;;;;;;9.47;5.73;;;16.80;99.90;;;;;;5045756;28;20267;-66
2021/07/23 06:47:22;;;;;;;10.30;6.20;;;16.80;99.90;;;;;;5051431;28;20238;-66
2021/07/23 06:49:51;;;;;;;7.40;6.60;;;16.70;99.90;;;;;;5049702;28;20293;-66
2021/07/23 06:52:19;;;;;;;6.77;6.07;;;16.80;99.90;;;;;;5047708;28;20751;-66
2021/07/23 06:54:50;;;;;;;6.83;6.13;;;16.80;99.90;;;;;;5046273;28;20428;-66
2021/07/23 06:57:20;;;;;;;9.57;6.70;;;16.80;99.90;;;;;;5045866;28;20220;-66
2021/07/23 06:59:51;;;;;;;8.97;7.03;;;16.80;99.90;;;;;;5046730;28;20243;-66
2021/07/23 07:02:19;;;;;;;8.37;6.97;;;16.80;99.90;;;;;;5045425;28;20354;-66
2021/07/23 07:04:48;;;;;;;8.63;6.90;;;16.80;99.90;;;;;;5045597;28;20252;-66
2021/07/23 07:07:18;;;;;;;8.63;6.60;;;16.80;99.90;;;;;;5045915;28;20252;-66
2021/07/23 07:09:46;;;;;;;7.13;6.30;;;16.80;99.90;;;;;;5044852;28;20243;-66
2021/07/23 07:12:14;;;;;;;8.40;7.27;;;16.80;99.90;;;;;;5051769;28;20243;-66
2021/07/23 07:14:44;;;;;;;7.23;6.50;;;16.90;99.90;;;;;;5046880;28;20329;-66
2021/07/23 07:17:13;;;;;;;9.30;7.53;;;16.90;99.90;;;;;;5042928;28;20603;-66
2021/07/23 07:19:41;;;;;;;10.00;7.23;;;17.00;99.90;;;;;;5041353;28;20250;-66
2021/07/23 07:22:09;;;;;;;7.17;6.47;;;17.00;99.90;;;;;;5046458;28;20266;-66
2021/07/23 07:24:37;;;;;;;8.83;7.40;;;17.10;99.90;;;;;;5047576;28;20248;-66
2021/07/23 07:27:05;;;;;;;8.10;6.90;;;17.10;99.90;;;;;;5042761;28;20243;-66
2021/07/23 07:29:35;;;;;;;7.30;6.60;;;17.10;99.90;;;;;;5048102;28;20961;-66
2021/07/23 07:32:08;;;;;;;8.87;7.67;;;17.10;99.90;;;;;;5047716;28;20251;-66
2021/07/23 07:34:36;;;;;;;7.73;6.93;;;17.10;99.90;;;;;;5043616;28;20412;-66
2021/07/23 07:37:05;;;;;;;9.40;7.80;;;17.20;99.90;;;;;;5042528;28;20244;-66
2021/07/23 07:39:34;;;;;;;9.23;8.23;;;17.20;99.90;;;;;;5040621;28;20512;-66
2021/07/23 07:42:02;;;;;;;10.47;9.17;;;17.20;99.90;;;;;;5041520;28;20301;-66
2021/07/23 07:44:30;;;;;;;9.47;7.70;;;17.20;99.90;;;;;;5042458;28;20228;-66
2021/07/23 07:46:58;;;;;;;9.93;8.47;;;17.20;99.90;;;;;;5048070;28;20235;-66
2021/07/23 07:49:28;;;;;;;9.57;8.17;;;17.20;99.90;;;;;;5043753;28;20243;-65
2021/07/23 07:51:56;;;;;;;10.47;7.80;;;17.20;99.90;;;;;;5045479;28;20243;-66
2021/07/23 07:54:24;;;;;;;10.90;9.37;;;17.20;99.90;;;;;;5047537;28;20245;-67
2021/07/23 07:56:54;;;;;;;12.43;8.43;;;17.20;99.90;;;;;;5044244;28;20244;-66
2021/07/23 07:59:22;;;;;;;10.40;8.57;;;17.20;99.90;;;;;;5044197;28;20335;-66
2021/07/23 08:01:50;;;;;;;10.20;9.20;;;17.20;99.90;;;;;;5044296;28;20310;-66
2021/07/23 08:04:19;;;;;;;9.30;8.40;;;17.20;99.90;;;;;;5040869;28;20368;-66
2021/07/23 08:06:48;;;;;;;13.33;8.87;;;17.20;99.90;;;;;;5041873;28;20802;-66
2021/07/23 08:09:17;;;;;;;11.83;9.23;;;17.30;99.90;;;;;;5045544;28;20254;-66
2021/07/23 08:11:45;;;;;;;10.90;9.13;;;17.30;99.90;;;;;;5039910;28;20302;-66
2021/07/23 08:14:13;;;;;;;10.60;8.80;;;17.40;99.90;;;;;;2347852;28;10023853;-66
2021/07/23 08:16:41;;;;;;;11.27;8.80;;;17.40;99.90;;;;;;3285988;28;10001507;-65
2021/07/23 08:19:09;;;;;;;12.00;9.10;;;17.30;99.90;;;;;;5011696;28;20476;-66
2021/07/23 08:21:38;;;;;;;9.57;8.50;;;17.30;99.90;;;;;;5012960;28;20384;-67
2021/07/23 08:24:07;;;;;;;10.43;9.17;;;17.40;99.90;;;;;;5014029;28;20363;-66
2021/07/23 08:26:35;;;;;;;8.80;7.90;;;17.50;99.90;;;;;;5013667;28;20387;-66
2021/07/23 08:29:04;;;;;;;11.37;8.93;;;17.50;99.90;;;;;;5010970;28;20308;-66
2021/07/23 08:31:32;;;;;;;9.50;8.07;;;17.60;99.90;;;;;;5010978;28;20256;-66
2021/07/23 08:34:00;;;;;;;8.40;7.60;;;17.70;99.90;;;;;;5013887;28;21044;-66
2021/07/23 08:36:28;;;;;;;8.83;7.90;;;17.80;99.90;;;;;;5013688;28;20280;-66
2021/07/23 08:38:56;;;;;;;8.27;7.43;;;17.80;99.90;;;;;;5011442;28;20253;-66
2021/07/23 08:41:25;;;;;;;11.33;7.73;;;17.80;99.90;;;;;;5013338;28;20273;-66
2021/07/23 08:43:54;;;;;;;11.40;8.57;;;17.90;99.90;;;;;;5013849;28;20325;-66
2021/07/23 08:46:22;;;;;;;10.60;9.47;;;18.00;99.90;;;;;;5013191;28;20251;-66
2021/07/23 08:48:50;;;;;;;9.53;8.53;;;18.00;99.90;;;;;;5011359;28;20252;-66
2021/07/23 08:51:20;;;;;;;9.87;8.60;;;18.20;99.90;;;;;;5013229;28;20578;-66
2021/07/23 08:53:48;;;;;;;10.03;8.77;;;18.30;99.90;;;;;;5014067;28;20245;-66
2021/07/23 08:56:16;;;;;;;11.60;8.03;;;18.40;99.90;;;;;;5012263;28;20242;-66
2021/07/23 08:58:45;;;;;;;14.67;10.50;;;18.50;99.90;;;;;;5011422;28;20250;-66
2021/07/23 09:01:14;;;;;;;11.37;8.50;;;18.50;99.90;;;;;;5013179;28;20332;-66
2021/07/23 09:03:42;;;;;;;16.90;11.07;;;18.50;99.90;;;;;;5012618;28;20253;-66
2021/07/23 09:06:16;;;;;;;12.87;9.97;;;18.40;99.90;;;;;;5013097;28;20701;-66
2021/07/23 09:08:48;;;;;;;10.77;9.53;;;18.30;99.90;;;;;;5010802;28;20265;-67
2021/07/23 09:11:25;;;;;;;13.17;9.70;;;18.30;99.90;;;;;;5010925;28;20739;-67
2021/07/23 09:14:14;;;;;;;12.67;8.87;;;18.50;99.90;;;;;;5013505;28;20292;-66
2021/07/23 09:16:43;;;;;;;12.30;9.33;;;18.70;99.90;;;;;;5013192;28;20785;-66
2021/07/23 09:19:11;;;;;;;9.80;8.80;;;19.00;99.90;;;;;;5011214;28;20343;-66
2021/07/23 09:21:40;;;;;;;10.90;8.40;;;19.20;99.90;;;;;;5012539;28;20627;-66
2021/07/23 09:24:09;;;;;;;10.33;8.83;;;19.30;99.90;;;;;;5013350;28;20621;-66
2021/07/23 09:26:43;;;;;;;10.23;8.73;;;19.40;99.90;;;;;;5014157;28;20244;-66
2021/07/23 09:29:14;;;;;;;12.80;8.80;;;19.50;99.90;;;;;;5013020;28;20250;-66
2021/07/23 09:32:05;;;;;;;10.00;8.37;;;19.50;99.90;;;;;;5015433;28;20368;-66
2021/07/23 09:34:34;;;;;;;8.73;7.83;;;19.40;99.90;;;;;;5016724;28;20252;-66
2021/07/23 09:37:07;;;;;;;11.07;9.33;;;19.30;99.90;;;;;;5016725;28;20705;-66
2021/07/23 09:39:56;;;;;;;9.17;8.27;;;19.30;99.90;;;;;;5014501;28;20670;-67
2021/07/23 09:42:25;;;;;;;9.57;8.37;;;19.30;99.90;;;;;;5017009;28;20247;-65
2021/07/23 09:45:02;;;;;;;8.50;7.60;;;19.40;99.90;;;;;;5016770;28;20253;-67
2021/07/23 09:47:30;;;;;;;8.83;7.80;;;19.60;99.90;;;;;;5016863;28;20247;-66
2021/07/23 09:50:01;;;;;;;11.43;7.73;;;19.70;99.90;;;;;;5014383;28;20326;-66
2021/07/23 09:52:30;;;;;;;8.07;7.27;;;19.80;99.90;;;;;;5015908;28;20255;-66
2021/07/23 09:54:58;;;;;;;8.30;7.50;;;20.00;99.90;;;;;;5016107;28;20326;-66
2021/07/23 09:57:31;;;;;;;8.13;7.33;;;20.00;99.90;;;;;;5015578;28;20247;-66
2021/07/23 10:00:05;;;;;;;8.40;7.30;;;20.10;99.90;;;;;;5013583;28;20323;-66
2021/07/23 10:02:38;;;;;;;9.00;7.07;;;20.30;99.90;;;;;;5015773;28;20275;-66
2021/07/23 10:05:11;;;;;;;7.70;6.60;;;20.40;99.90;;;;;;5016435;28;20250;-66
2021/07/23 10:07:41;;;;;;;9.40;7.23;;;20.60;99.90;;;;;;5016306;28;20803;-67
2021/07/23 10:10:13;;;;;;;8.00;7.07;;;20.50;99.90;;;;;;5014209;28;20247;-66
2021/07/23 10:12:44;;;;;;;7.70;6.77;;;20.60;99.90;;;;;;5016213;28;20239;-66
2021/07/23 10:15:14;;;;;;;8.83;7.93;;;20.80;99.90;;;;;;5015858;28;20363;-66
2021/07/23 10:17:42;;;;;;;7.97;6.83;;;20.90;99.90;;;;;;5029060;28;20330;-66
2021/07/23 10:20:12;;;;;;;8.53;6.97;;;21.10;99.90;;;;;;5026729;28;21077;-66
2021/07/23 10:22:41;;;;;;;6.90;6.30;;;21.20;99.90;;;;;;5022094;28;20649;-66
2021/07/23 10:25:09;;;;;;;9.90;7.80;;;21.20;99.90;;;;;;5029339;28;20285;-66
2021/07/23 10:27:40;;;;;;;10.03;7.53;;;21.10;99.90;;;;;;5028520;28;20857;-67
2021/07/23 10:30:30;;;;;;;9.90;7.20;;;20.90;99.90;;;;;;5020612;28;20347;-66
2021/07/23 10:32:58;;;;;;;7.33;6.57;;;21.00;99.90;;;;;;5027313;28;20244;-66
2021/07/23 10:35:32;;;;;;;7.53;6.73;;;21.20;99.90;;;;;;5029297;28;20329;-66
2021/07/23 10:38:02;;;;;;;8.30;6.53;;;21.50;99.90;;;;;;5028028;28;20244;-67
2021/07/23 10:40:41;;;;;;;7.63;6.37;;;21.70;99.90;;;;;;5022022;28;20252;-66
2021/07/23 10:43:36;;;;;;;6.40;5.80;;;21.80;99.90;;;;;;5022125;28;20247;-66
2021/07/23 10:46:07;;;;;;;6.73;6.00;;;21.70;99.90;;;;;;4992751;28;20243;-66
2021/07/23 10:48:46;;;;;;;6.53;5.93;;;21.60;99.90;;;;;;5026799;28;20251;-67
2021/07/23 10:51:45;;;;;;;6.80;6.10;;;21.50;99.90;;;;;;5022443;28;20417;-66
2021/07/23 10:54:13;;;;;;;9.30;6.50;;;21.50;99.90;;;;;;5022526;28;20746;-66
2021/07/23 10:57:14;;;;;;;6.97;6.13;;;21.40;99.90;;;;;;5023359;28;20592;-66
2021/07/23 10:59:50;;;;;;;7.57;6.13;;;21.40;99.90;;;;;;5021742;28;20258;-66
2021/07/23 11:02:47;;;;;;;6.70;6.10;;;21.40;99.90;;;;;;5034771;28;20239;-66
2021/07/23 11:05:20;;;;;;;7.20;6.33;;;21.30;99.90;;;;;;5020074;28;20246;-66
2021/07/23 11:07:48;;;;;;;8.00;6.67;;;21.20;99.90;;;;;;5022156;28;20674;-66
2021/07/23 11:10:23;;;;;;;7.30;6.60;;;21.00;99.90;;;;;;5022028;28;20251;-66
2021/07/23 11:12:51;;;;;;;8.80;6.70;;;20.70;99.90;;;;;;5041399;28;20661;-66
2021/07/23 11:15:22;;;;;;;8.73;6.60;;;20.60;99.90;;;;;;5042236;28;21490;-66
2021/07/23 11:17:53;;;;;;;7.47;6.63;;;20.30;99.90;;;;;;5040750;28;20259;-67
2021/07/23 11:20:33;;;;;;;7.80;7.00;;;20.20;99.90;;;;;;5044168;28;20297;-66
2021/07/23 11:23:02;;;;;;;8.37;7.57;;;20.10;99.90;;;;;;5046237;28;20392;-65
2021/07/23 11:25:30;;;;;;;9.03;7.60;;;20.10;99.90;;;;;;5044218;28;20782;-67
2021/07/23 11:28:04;;;;;;;8.57;6.93;;;20.00;99.90;;;;;;5040611;28;20238;-67
2021/07/23 11:30:34;;;;;;;8.27;7.47;;;19.90;99.90;;;;;;5041743;28;20258;-67
2021/07/23 11:33:05;;;;;;;11.63;7.07;;;19.70;99.90;;;;;;5045797;28;20535;-66
2021/07/23 11:35:40;;;;;;;8.20;7.00;;;19.80;99.90;;;;;;5046862;28;20859;-66
2021/07/23 11:38:12;;;;;;;9.30;8.27;;;19.80;99.90;;;;;;5045806;28;20242;-67
2021/07/23 11:40:40;;;;;;;8.00;7.20;;;19.70;99.90;;;;;;5045439;28;20807;-66
2021/07/23 11:43:19;;;;;;;8.93;7.37;;;19.70;99.90;;;;;;5045602;28;23981;-66
2021/07/23 11:45:47;;;;;;;9.10;8.20;;;19.60;99.90;;;;;;5015070;28;20254;-66
2021/07/23 11:48:17;;;;;;;8.33;6.77;;;19.50;99.90;;;;;;5024316;28;20553;-66
2021/07/23 11:50:53;;;;;;;7.60;5.47;;;19.50;99.90;;;;;;5018007;28;20240;-66
2021/07/23 11:53:21;;;;;;;7.60;5.40;;;19.60;99.90;;;;;;5007161;28;20385;-67
2021/07/23 11:55:50;;;;;;;6.33;5.07;;;19.70;99.90;;;;;;5015190;28;20346;-66
2021/07/23 11:58:22;;;;;;;6.17;5.50;;;19.70;99.90;;;;;;5012860;28;20256;-67
2021/07/23 12:00:51;;;;;;;9.53;5.33;;;19.90;99.90;;;;;;5029739;28;20786;-66
2021/07/23 12:03:22;;;;;;;7.53;5.60;;;20.00;99.90;;;;;;5030338;28;20248;-67
2021/07/23 12:05:51;;;;;;;6.37;5.50;;;20.10;99.90;;;;;;5021530;28;20591;-66
2021/07/23 12:08:20;;;;;;;6.30;5.30;;;20.10;99.90;;;;;;5020421;28;20247;-66
2021/07/23 12:10:49;;;;;;;6.50;5.07;;;20.20;99.90;;;;;;5018729;28;20377;-66
2021/07/23 12:13:17;;;;;;;9.03;6.43;;;20.20;99.90;;;;;;5050431;28;20276;-67
2021/07/23 12:15:48;;;;;;;9.43;5.90;;;20.20;99.90;;;;;;5050448;28;20245;-67
2021/07/23 12:18:17;;;;;;;8.97;7.37;;;20.20;99.90;;;;;;5030486;28;20343;-67
2021/07/23 12:20:47;;;;;;;8.13;6.40;;;20.20;99.90;;;;;;5013373;28;20236;-67
2021/07/23 12:23:24;;;;;;;6.80;5.80;;;20.30;99.90;;;;;;5048915;28;20637;-67
2021/07/23 12:25:53;;;;;;;7.23;5.70;;;20.20;99.90;;;;;;5019192;28;20588;-67
2021/07/23 12:28:22;;;;;;;6.53;5.53;;;20.30;99.90;;;;;;5026847;28;20248;-66
2021/07/23 12:30:51;;;;;;;6.30;5.53;;;20.20;99.90;;;;;;5020068;28;20235;-66
2021/07/23 12:33:25;;;;;;;5.70;5.17;;;20.20;99.90;;;;;;5019863;28;20254;-67
2021/07/23 12:35:58;;;;;;;6.43;5.50;;;20.30;99.90;;;;;;5014978;28;20685;-67
2021/07/23 12:38:26;;;;;;;5.97;5.30;;;20.40;99.90;;;;;;5013485;28;20271;-67
2021/07/23 12:40:57;;;;;;;6.13;5.00;;;20.60;99.90;;;;;;5027236;28;20968;-68
2021/07/23 12:43:26;;;;;;;7.63;6.00;;;20.70;99.90;;;;;;5008567;28;20724;-67
2021/07/23 12:45:54;;;;;;;5.97;5.37;;;20.70;99.90;;;;;;5012895;28;20242;-67
2021/07/23 12:48:24;;;;;;;6.90;6.20;;;20.80;99.90;;;;;;5015803;28;20724;-67
2021/07/23 12:51:04;;;;;;;6.67;5.97;;;20.70;99.90;;;;;;5015654;28;20244;-67
2021/07/23 12:53:34;;;;;;;8.10;5.80;;;20.90;99.90;;;;;;5018260;28;20659;-66
2021/07/23 12:56:05;;;;;;;6.33;5.47;;;21.00;99.90;;;;;;5019106;28;20330;-67
2021/07/23 12:58:40;;;;;;;9.30;6.73;;;21.00;99.90;;;;;;5009197;28;20851;-67
2021/07/23 13:01:09;;;;;;;8.07;6.63;;;21.10;99.90;;;;;;5008460;28;20243;-67
2021/07/23 13:03:38;;;;;;;7.63;5.87;;;21.10;99.90;;;;;;5016860;28;20232;-67
2021/07/23 13:06:09;;;;;;;9.17;6.50;;;21.20;99.90;;;;;;5020590;28;20252;-67